sensor_id;sensor_type;location;lat;lon;timestamp;P1;durP1;ratioP1;P2;durP2;ratioP2
67063;SDS011;58476;48.072;11.970;2022-07-23T00:00:16;9.23;;;6.18;;
67063;SDS011;58476;48.072;11.970;2022-07-23T00:02:42;7.55;;;6.35;;
67063;SDS011;58476;48.072;11.970;2022-07-23T00:05:08;7.57;;;6.20;;
67063;SDS011;58476;48.072;11.970;2022-07-23T00:07:33;7.28;;;6.28;;
67063;SDS011;58476;48.072;11.970;2022-07-23T00:09:59;6.90;;;5.97;;
67063;SDS011;58476;48.072;11.970;2022-07-23T00:12:25;7.30;;;6.03;;
67063;SDS011;58476;48.072;11.970;2022-07-23T00:14:50;7.47;;;5.53;;
67063;SDS011;58476;48.072;11.970;2022-07-23T00:17:16;7.20;;;5.45;;
67063;SDS011;58476;48.072;11.970;2022-07-23T00:19:41;6.60;;;5.45;;
67063;SDS011;58476;48.072;11.970;2022-07-23T00:22:07;7.75;;;5.78;;
67063;SDS011;58476;48.072;11.970;2022-07-23T00:24:32;7.25;;;5.65;;
67063;SDS011;58476;48.072;11.970;2022-07-23T00:26:58;7.47;;;5.85;;
67063;SDS011;58476;48.072;11.970;2022-07-23T00:29:23;7.20;;;5.63;;
67063;SDS011;58476;48.072;11.970;2022-07-23T00:31:49;7.57;;;5.57;;
67063;SDS011;58476;48.072;11.970;2022-07-23T00:34:14;7.68;;;5.55;;
67063;SDS011;58476;48.072;11.970;2022-07-23T00:36:39;6.85;;;5.30;;
67063;SDS011;58476;48.072;11.970;2022-07-23T00:39:05;7.53;;;5.00;;
67063;SDS011;58476;48.072;11.970;2022-07-23T00:41:31;6.57;;;5.20;;
67063;SDS011;58476;48.072;11.970;2022-07-23T00:44:13;6.70;;;5.20;;
67063;SDS011;58476;48.072;11.970;2022-07-23T00:46:44;7.03;;;5.20;;
67063;SDS011;58476;48.072;11.970;2022-07-23T00:49:10;5.85;;;4.63;;
67063;SDS011;58476;48.072;11.970;2022-07-23T00:51:35;7.45;;;5.00;;
67063;SDS011;58476;48.072;11.970;2022-07-23T00:54:00;8.07;;;5.15;;
67063;SDS011;58476;48.072;11.970;2022-07-23T00:56:26;7.30;;;5.35;;
67063;SDS011;58476;48.072;11.970;2022-07-23T00:58:51;5.95;;;4.78;;
67063;SDS011;58476;48.072;11.970;2022-07-23T01:01:17;6.57;;;5.00;;
67063;SDS011;58476;48.072;11.970;2022-07-23T01:03:42;6.57;;;4.78;;
67063;SDS011;58476;48.072;11.970;2022-07-23T01:06:08;7.57;;;5.00;;
67063;SDS011;58476;48.072;11.970;2022-07-23T01:08:33;7.85;;;4.93;;
67063;SDS011;58476;48.072;11.970;2022-07-23T01:10:58;6.88;;;5.25;;
67063;SDS011;58476;48.072;11.970;2022-07-23T01:13:24;6.20;;;4.60;;
67063;SDS011;58476;48.072;11.970;2022-07-23T01:15:49;6.05;;;4.65;;
67063;SDS011;58476;48.072;11.970;2022-07-23T01:18:14;6.88;;;5.15;;
67063;SDS011;58476;48.072;11.970;2022-07-23T01:20:40;6.78;;;4.57;;
67063;SDS011;58476;48.072;11.970;2022-07-23T01:23:07;6.80;;;4.80;;
67063;SDS011;58476;48.072;11.970;2022-07-23T01:25:33;7.20;;;4.50;;
67063;SDS011;58476;48.072;11.970;2022-07-23T01:28:01;6.10;;;4.97;;
67063;SDS011;58476;48.072;11.970;2022-07-23T01:30:26;6.80;;;4.72;;
67063;SDS011;58476;48.072;11.970;2022-07-23T01:32:53;6.00;;;4.70;;
67063;SDS011;58476;48.072;11.970;2022-07-23T01:35:18;6.93;;;5.40;;
67063;SDS011;58476;48.072;11.970;2022-07-23T01:37:44;5.93;;;5.05;;
67063;SDS011;58476;48.072;11.970;2022-07-23T01:40:10;5.78;;;4.85;;
67063;SDS011;58476;48.072;11.970;2022-07-23T01:42:36;7.15;;;4.70;;
67063;SDS011;58476;48.072;11.970;2022-07-23T01:45:03;7.35;;;4.68;;
67063;SDS011;58476;48.072;11.970;2022-07-23T01:47:30;8.93;;;4.70;;
67063;SDS011;58476;48.072;11.970;2022-07-23T01:49:55;6.00;;;4.63;;
67063;SDS011;58476;48.072;11.970;2022-07-23T01:52:37;6.22;;;5.18;;
67063;SDS011;58476;48.072;11.970;2022-07-23T01:55:03;5.63;;;4.43;;
67063;SDS011;58476;48.072;11.970;2022-07-23T01:57:29;6.13;;;4.70;;
67063;SDS011;58476;48.072;11.970;2022-07-23T01:59:58;7.15;;;4.55;;
67063;SDS011;58476;48.072;11.970;2022-07-23T02:02:24;7.95;;;4.60;;
67063;SDS011;58476;48.072;11.970;2022-07-23T02:04:49;6.57;;;4.68;;
67063;SDS011;58476;48.072;11.970;2022-07-23T02:07:17;6.93;;;4.55;;
67063;SDS011;58476;48.072;11.970;2022-07-23T02:09:42;7.03;;;4.90;;
67063;SDS011;58476;48.072;11.970;2022-07-23T02:12:08;6.00;;;4.70;;
67063;SDS011;58476;48.072;11.970;2022-07-23T02:14:33;6.20;;;4.70;;
67063;SDS011;58476;48.072;11.970;2022-07-23T02:16:58;5.95;;;4.53;;
67063;SDS011;58476;48.072;11.970;2022-07-23T02:19:24;5.85;;;4.50;;
67063;SDS011;58476;48.072;11.970;2022-07-23T02:21:49;5.80;;;4.63;;
67063;SDS011;58476;48.072;11.970;2022-07-23T02:24:18;6.90;;;4.57;;
67063;SDS011;58476;48.072;11.970;2022-07-23T02:26:43;6.80;;;4.70;;
67063;SDS011;58476;48.072;11.970;2022-07-23T02:29:10;5.90;;;4.50;;
67063;SDS011;58476;48.072;11.970;2022-07-23T02:31:35;5.32;;;4.15;;
67063;SDS011;58476;48.072;11.970;2022-07-23T02:34:01;6.90;;;4.32;;
67063;SDS011;58476;48.072;11.970;2022-07-23T02:36:27;5.55;;;4.22;;
67063;SDS011;58476;48.072;11.970;2022-07-23T02:38:52;4.75;;;3.85;;
67063;SDS011;58476;48.072;11.970;2022-07-23T02:41:18;6.25;;;4.05;;
67063;SDS011;58476;48.072;11.970;2022-07-23T02:43:43;6.10;;;4.18;;
67063;SDS011;58476;48.072;11.970;2022-07-23T02:46:10;6.22;;;4.40;;
67063;SDS011;58476;48.072;11.970;2022-07-23T02:48:36;5.68;;;4.07;;
67063;SDS011;58476;48.072;11.970;2022-07-23T02:51:02;6.53;;;3.90;;
67063;SDS011;58476;48.072;11.970;2022-07-23T02:53:33;4.75;;;3.80;;
67063;SDS011;58476;48.072;11.970;2022-07-23T02:55:58;5.13;;;3.90;;
67063;SDS011;58476;48.072;11.970;2022-07-23T02:58:24;5.40;;;3.63;;
67063;SDS011;58476;48.072;11.970;2022-07-23T03:00:49;4.85;;;3.88;;
67063;SDS011;58476;48.072;11.970;2022-07-23T03:03:14;5.22;;;3.85;;
67063;SDS011;58476;48.072;11.970;2022-07-23T03:05:40;5.05;;;3.85;;
67063;SDS011;58476;48.072;11.970;2022-07-23T03:08:06;5.15;;;3.70;;
67063;SDS011;58476;48.072;11.970;2022-07-23T03:10:33;5.43;;;4.00;;
67063;SDS011;58476;48.072;11.970;2022-07-23T03:12:59;5.75;;;4.20;;
67063;SDS011;58476;48.072;11.970;2022-07-23T03:15:24;4.35;;;3.80;;
67063;SDS011;58476;48.072;11.970;2022-07-23T03:17:50;5.15;;;3.92;;
67063;SDS011;58476;48.072;11.970;2022-07-23T03:20:15;5.40;;;3.85;;
67063;SDS011;58476;48.072;11.970;2022-07-23T03:22:40;4.93;;;3.80;;
67063;SDS011;58476;48.072;11.970;2022-07-23T03:25:06;5.70;;;4.25;;
67063;SDS011;58476;48.072;11.970;2022-07-23T03:27:34;7.15;;;3.88;;
67063;SDS011;58476;48.072;11.970;2022-07-23T03:29:59;4.47;;;3.50;;
67063;SDS011;58476;48.072;11.970;2022-07-23T03:32:25;4.72;;;3.70;;
67063;SDS011;58476;48.072;11.970;2022-07-23T03:34:50;4.88;;;3.22;;
67063;SDS011;58476;48.072;11.970;2022-07-23T03:37:17;4.78;;;3.75;;
67063;SDS011;58476;48.072;11.970;2022-07-23T03:39:43;4.80;;;3.50;;
67063;SDS011;58476;48.072;11.970;2022-07-23T03:42:09;4.10;;;3.20;;
67063;SDS011;58476;48.072;11.970;2022-07-23T03:44:35;4.40;;;3.30;;
67063;SDS011;58476;48.072;11.970;2022-07-23T03:47:02;5.68;;;3.30;;
67063;SDS011;58476;48.072;11.970;2022-07-23T03:49:28;3.33;;;2.85;;
67063;SDS011;58476;48.072;11.970;2022-07-23T03:51:53;4.40;;;3.10;;
67063;SDS011;58476;48.072;11.970;2022-07-23T03:54:19;3.80;;;3.13;;
67063;SDS011;58476;48.072;11.970;2022-07-23T03:56:45;4.32;;;3.50;;
67063;SDS011;58476;48.072;11.970;2022-07-23T03:59:10;4.80;;;3.30;;
67063;SDS011;58476;48.072;11.970;2022-07-23T04:01:36;4.07;;;3.33;;
67063;SDS011;58476;48.072;11.970;2022-07-23T04:04:01;3.58;;;2.90;;
67063;SDS011;58476;48.072;11.970;2022-07-23T04:06:27;4.60;;;3.20;;
67063;SDS011;58476;48.072;11.970;2022-07-23T04:08:54;4.25;;;3.03;;
67063;SDS011;58476;48.072;11.970;2022-07-23T04:11:19;4.80;;;3.40;;
67063;SDS011;58476;48.072;11.970;2022-07-23T04:13:44;3.63;;;3.00;;
67063;SDS011;58476;48.072;11.970;2022-07-23T04:16:10;3.10;;;2.70;;
67063;SDS011;58476;48.072;11.970;2022-07-23T04:18:36;4.47;;;3.30;;
67063;SDS011;58476;48.072;11.970;2022-07-23T04:21:08;3.60;;;2.95;;
67063;SDS011;58476;48.072;11.970;2022-07-23T04:23:34;4.43;;;3.00;;
67063;SDS011;58476;48.072;11.970;2022-07-23T04:26:00;3.95;;;3.17;;
67063;SDS011;58476;48.072;11.970;2022-07-23T04:28:25;4.22;;;3.33;;
67063;SDS011;58476;48.072;11.970;2022-07-23T04:30:51;3.88;;;3.10;;
67063;SDS011;58476;48.072;11.970;2022-07-23T04:33:17;4.72;;;2.90;;
67063;SDS011;58476;48.072;11.970;2022-07-23T04:35:44;3.67;;;2.83;;
67063;SDS011;58476;48.072;11.970;2022-07-23T04:38:17;3.65;;;2.88;;
67063;SDS011;58476;48.072;11.970;2022-07-23T04:40:43;3.58;;;2.95;;
67063;SDS011;58476;48.072;11.970;2022-07-23T04:43:09;3.90;;;3.05;;
67063;SDS011;58476;48.072;11.970;2022-07-23T04:45:40;3.22;;;2.90;;
67063;SDS011;58476;48.072;11.970;2022-07-23T04:48:06;3.70;;;2.95;;
67063;SDS011;58476;48.072;11.970;2022-07-23T04:50:31;4.50;;;3.20;;
67063;SDS011;58476;48.072;11.970;2022-07-23T04:52:57;4.53;;;3.20;;
67063;SDS011;58476;48.072;11.970;2022-07-23T04:55:22;3.63;;;2.90;;
67063;SDS011;58476;48.072;11.970;2022-07-23T04:57:48;3.83;;;2.95;;
67063;SDS011;58476;48.072;11.970;2022-07-23T05:00:13;3.50;;;3.00;;
67063;SDS011;58476;48.072;11.970;2022-07-23T05:02:39;3.58;;;2.92;;
67063;SDS011;58476;48.072;11.970;2022-07-23T05:05:04;3.67;;;3.20;;
67063;SDS011;58476;48.072;11.970;2022-07-23T05:07:30;3.63;;;2.90;;
67063;SDS011;58476;48.072;11.970;2022-07-23T05:09:55;3.35;;;2.85;;
67063;SDS011;58476;48.072;11.970;2022-07-23T05:12:21;3.33;;;2.80;;
67063;SDS011;58476;48.072;11.970;2022-07-23T05:14:46;3.67;;;2.97;;
67063;SDS011;58476;48.072;11.970;2022-07-23T05:17:12;5.03;;;2.80;;
67063;SDS011;58476;48.072;11.970;2022-07-23T05:19:38;3.50;;;2.88;;
67063;SDS011;58476;48.072;11.970;2022-07-23T05:22:03;3.80;;;3.10;;
67063;SDS011;58476;48.072;11.970;2022-07-23T05:24:29;3.75;;;3.10;;
67063;SDS011;58476;48.072;11.970;2022-07-23T05:26:54;3.28;;;2.90;;
67063;SDS011;58476;48.072;11.970;2022-07-23T05:29:21;4.90;;;3.13;;
67063;SDS011;58476;48.072;11.970;2022-07-23T05:31:46;4.30;;;3.00;;
67063;SDS011;58476;48.072;11.970;2022-07-23T05:34:12;3.72;;;3.25;;
67063;SDS011;58476;48.072;11.970;2022-07-23T05:36:37;5.18;;;3.03;;
67063;SDS011;58476;48.072;11.970;2022-07-23T05:39:03;3.53;;;2.80;;
67063;SDS011;58476;48.072;11.970;2022-07-23T05:41:32;5.15;;;3.20;;
67063;SDS011;58476;48.072;11.970;2022-07-23T05:43:57;4.82;;;3.13;;
67063;SDS011;58476;48.072;11.970;2022-07-23T05:46:23;5.30;;;3.30;;
67063;SDS011;58476;48.072;11.970;2022-07-23T05:48:54;4.28;;;3.03;;
67063;SDS011;58476;48.072;11.970;2022-07-23T05:51:45;5.57;;;3.40;;
67063;SDS011;58476;48.072;11.970;2022-07-23T05:54:10;8.73;;;2.83;;
67063;SDS011;58476;48.072;11.970;2022-07-23T05:56:37;8.13;;;3.70;;
67063;SDS011;58476;48.072;11.970;2022-07-23T05:59:03;6.53;;;3.20;;
67063;SDS011;58476;48.072;11.970;2022-07-23T06:01:29;11.10;;;3.88;;
67063;SDS011;58476;48.072;11.970;2022-07-23T06:04:04;7.38;;;3.80;;
67063;SDS011;58476;48.072;11.970;2022-07-23T06:06:34;5.63;;;3.22;;
67063;SDS011;58476;48.072;11.970;2022-07-23T06:09:00;6.45;;;3.15;;
67063;SDS011;58476;48.072;11.970;2022-07-23T06:11:25;5.55;;;3.10;;
67063;SDS011;58476;48.072;11.970;2022-07-23T06:13:51;4.03;;;3.22;;
67063;SDS011;58476;48.072;11.970;2022-07-23T06:16:17;6.53;;;3.10;;
67063;SDS011;58476;48.072;11.970;2022-07-23T06:18:44;4.97;;;3.53;;
67063;SDS011;58476;48.072;11.970;2022-07-23T06:21:10;5.60;;;3.53;;
67063;SDS011;58476;48.072;11.970;2022-07-23T06:23:35;9.32;;;3.22;;
67063;SDS011;58476;48.072;11.970;2022-07-23T06:26:00;5.28;;;3.15;;
67063;SDS011;58476;48.072;11.970;2022-07-23T06:28:26;5.20;;;3.20;;
67063;SDS011;58476;48.072;11.970;2022-07-23T06:30:51;6.25;;;3.38;;
67063;SDS011;58476;48.072;11.970;2022-07-23T06:33:16;6.75;;;3.60;;
67063;SDS011;58476;48.072;11.970;2022-07-23T06:35:43;6.07;;;3.28;;
67063;SDS011;58476;48.072;11.970;2022-07-23T06:38:08;6.07;;;3.45;;
67063;SDS011;58476;48.072;11.970;2022-07-23T06:40:33;9.02;;;3.38;;
67063;SDS011;58476;48.072;11.970;2022-07-23T06:43:00;6.18;;;3.72;;
67063;SDS011;58476;48.072;11.970;2022-07-23T06:45:26;5.68;;;3.45;;
67063;SDS011;58476;48.072;11.970;2022-07-23T06:47:51;6.35;;;4.18;;
67063;SDS011;58476;48.072;11.970;2022-07-23T06:50:17;8.63;;;3.30;;
67063;SDS011;58476;48.072;11.970;2022-07-23T06:52:43;4.68;;;2.97;;
67063;SDS011;58476;48.072;11.970;2022-07-23T06:55:08;5.32;;;3.15;;
67063;SDS011;58476;48.072;11.970;2022-07-23T06:57:34;4.25;;;3.40;;
67063;SDS011;58476;48.072;11.970;2022-07-23T06:59:59;5.50;;;3.38;;
67063;SDS011;58476;48.072;11.970;2022-07-23T07:02:25;5.85;;;3.35;;
67063;SDS011;58476;48.072;11.970;2022-07-23T07:04:50;7.60;;;3.30;;
67063;SDS011;58476;48.072;11.970;2022-07-23T07:07:15;4.07;;;3.10;;
67063;SDS011;58476;48.072;11.970;2022-07-23T07:09:41;4.93;;;3.20;;
67063;SDS011;58476;48.072;11.970;2022-07-23T07:12:06;7.15;;;3.38;;
67063;SDS011;58476;48.072;11.970;2022-07-23T07:14:32;5.20;;;3.45;;
67063;SDS011;58476;48.072;11.970;2022-07-23T07:16:57;5.18;;;3.20;;
67063;SDS011;58476;48.072;11.970;2022-07-23T07:19:22;7.93;;;3.42;;
67063;SDS011;58476;48.072;11.970;2022-07-23T07:21:47;5.22;;;3.67;;
67063;SDS011;58476;48.072;11.970;2022-07-23T07:24:13;3.88;;;3.00;;
67063;SDS011;58476;48.072;11.970;2022-07-23T07:26:38;6.88;;;3.20;;
67063;SDS011;58476;48.072;11.970;2022-07-23T07:29:04;6.60;;;3.35;;
67063;SDS011;58476;48.072;11.970;2022-07-23T07:31:30;5.40;;;3.47;;
67063;SDS011;58476;48.072;11.970;2022-07-23T07:33:55;7.90;;;3.38;;
67063;SDS011;58476;48.072;11.970;2022-07-23T07:36:21;7.35;;;3.90;;
67063;SDS011;58476;48.072;11.970;2022-07-23T07:38:46;7.10;;;3.55;;
67063;SDS011;58476;48.072;11.970;2022-07-23T07:41:11;5.63;;;3.70;;
67063;SDS011;58476;48.072;11.970;2022-07-23T07:43:37;5.57;;;3.88;;
67063;SDS011;58476;48.072;11.970;2022-07-23T07:46:03;7.60;;;4.28;;
67063;SDS011;58476;48.072;11.970;2022-07-23T07:48:28;5.25;;;3.60;;
67063;SDS011;58476;48.072;11.970;2022-07-23T07:50:54;5.00;;;3.47;;
67063;SDS011;58476;48.072;11.970;2022-07-23T07:53:19;5.05;;;3.67;;
67063;SDS011;58476;48.072;11.970;2022-07-23T07:55:44;5.88;;;3.75;;
67063;SDS011;58476;48.072;11.970;2022-07-23T07:58:10;6.10;;;3.75;;
67063;SDS011;58476;48.072;11.970;2022-07-23T08:00:35;5.40;;;4.05;;
67063;SDS011;58476;48.072;11.970;2022-07-23T08:03:01;5.22;;;3.60;;
67063;SDS011;58476;48.072;11.970;2022-07-23T08:05:27;5.60;;;3.70;;
67063;SDS011;58476;48.072;11.970;2022-07-23T08:07:54;5.45;;;3.90;;
67063;SDS011;58476;48.072;11.970;2022-07-23T08:10:20;6.10;;;3.92;;
67063;SDS011;58476;48.072;11.970;2022-07-23T08:12:47;5.65;;;3.75;;
67063;SDS011;58476;48.072;11.970;2022-07-23T08:15:15;4.72;;;3.80;;
67063;SDS011;58476;48.072;11.970;2022-07-23T08:17:42;4.68;;;3.53;;
67063;SDS011;58476;48.072;11.970;2022-07-23T08:20:09;6.38;;;4.20;;
67063;SDS011;58476;48.072;11.970;2022-07-23T08:25:14;5.15;;;3.90;;
67063;SDS011;58476;48.072;11.970;2022-07-23T08:27:39;5.53;;;3.65;;
67063;SDS011;58476;48.072;11.970;2022-07-23T08:30:05;9.32;;;4.10;;
67063;SDS011;58476;48.072;11.970;2022-07-23T08:32:31;5.40;;;3.97;;
67063;SDS011;58476;48.072;11.970;2022-07-23T08:34:56;6.78;;;4.05;;
67063;SDS011;58476;48.072;11.970;2022-07-23T08:37:21;6.35;;;3.95;;
67063;SDS011;58476;48.072;11.970;2022-07-23T08:39:47;5.03;;;3.95;;
67063;SDS011;58476;48.072;11.970;2022-07-23T08:42:13;4.80;;;3.75;;
67063;SDS011;58476;48.072;11.970;2022-07-23T08:44:40;8.05;;;4.15;;
67063;SDS011;58476;48.072;11.970;2022-07-23T08:47:09;5.35;;;4.13;;
67063;SDS011;58476;48.072;11.970;2022-07-23T08:49:35;8.25;;;4.40;;
67063;SDS011;58476;48.072;11.970;2022-07-23T08:52:01;8.27;;;4.80;;
67063;SDS011;58476;48.072;11.970;2022-07-23T08:54:26;7.57;;;4.82;;
67063;SDS011;58476;48.072;11.970;2022-07-23T08:56:52;7.57;;;4.35;;
67063;SDS011;58476;48.072;11.970;2022-07-23T08:59:17;8.18;;;4.70;;
67063;SDS011;58476;48.072;11.970;2022-07-23T09:01:43;9.13;;;5.63;;
67063;SDS011;58476;48.072;11.970;2022-07-23T09:04:08;6.80;;;4.30;;
67063;SDS011;58476;48.072;11.970;2022-07-23T09:06:33;7.65;;;4.70;;
67063;SDS011;58476;48.072;11.970;2022-07-23T09:08:59;6.65;;;4.40;;
67063;SDS011;58476;48.072;11.970;2022-07-23T09:11:45;7.00;;;4.47;;
67063;SDS011;58476;48.072;11.970;2022-07-23T09:14:11;5.35;;;4.32;;
67063;SDS011;58476;48.072;11.970;2022-07-23T09:16:36;5.18;;;4.03;;
67063;SDS011;58476;48.072;11.970;2022-07-23T09:19:05;6.75;;;4.32;;
67063;SDS011;58476;48.072;11.970;2022-07-23T09:21:32;6.88;;;5.13;;
67063;SDS011;58476;48.072;11.970;2022-07-23T09:24:03;6.50;;;4.40;;
67063;SDS011;58476;48.072;11.970;2022-07-23T09:26:35;6.40;;;4.47;;
67063;SDS011;58476;48.072;11.970;2022-07-23T09:31:48;5.55;;;4.25;;
67063;SDS011;58476;48.072;11.970;2022-07-23T09:34:34;7.35;;;4.28;;
67063;SDS011;58476;48.072;11.970;2022-07-23T09:39:37;6.50;;;4.32;;
67063;SDS011;58476;48.072;11.970;2022-07-23T09:44:48;6.90;;;4.20;;
67063;SDS011;58476;48.072;11.970;2022-07-23T09:47:18;6.05;;;4.45;;
67063;SDS011;58476;48.072;11.970;2022-07-23T09:52:29;5.57;;;4.18;;
67063;SDS011;58476;48.072;11.970;2022-07-23T09:54:58;6.75;;;4.50;;
67063;SDS011;58476;48.072;11.970;2022-07-23T09:57:28;6.38;;;4.68;;
67063;SDS011;58476;48.072;11.970;2022-07-23T09:59:53;13.00;;;7.47;;
67063;SDS011;58476;48.072;11.970;2022-07-23T10:02:23;115.67;;;63.07;;
67063;SDS011;58476;48.072;11.970;2022-07-23T10:05:09;380.42;;;249.18;;
67063;SDS011;58476;48.072;11.970;2022-07-23T10:07:56;525.30;;;292.42;;
67063;SDS011;58476;48.072;11.970;2022-07-23T10:10:41;250.52;;;135.10;;
67063;SDS011;58476;48.072;11.970;2022-07-23T10:13:14;444.52;;;242.75;;
67063;SDS011;58476;48.072;11.970;2022-07-23T10:15:40;292.83;;;147.38;;
67063;SDS011;58476;48.072;11.970;2022-07-23T10:18:06;261.98;;;132.10;;
67063;SDS011;58476;48.072;11.970;2022-07-23T10:20:34;225.30;;;117.88;;
67063;SDS011;58476;48.072;11.970;2022-07-23T10:33:54;89.90;;;50.67;;
67063;SDS011;58476;48.072;11.970;2022-07-23T10:36:29;80.68;;;45.67;;
67063;SDS011;58476;48.072;11.970;2022-07-23T10:41:47;64.57;;;37.25;;
67063;SDS011;58476;48.072;11.970;2022-07-23T10:44:13;62.72;;;36.47;;
67063;SDS011;58476;48.072;11.970;2022-07-23T10:47:04;66.57;;;33.22;;
67063;SDS011;58476;48.072;11.970;2022-07-23T10:49:30;52.80;;;29.95;;
67063;SDS011;58476;48.072;11.970;2022-07-23T10:57:47;47.40;;;26.73;;
67063;SDS011;58476;48.072;11.970;2022-07-23T11:00:14;39.28;;;24.17;;
67063;SDS011;58476;48.072;11.970;2022-07-23T11:02:43;42.15;;;22.58;;
67063;SDS011;58476;48.072;11.970;2022-07-23T11:05:14;35.28;;;20.77;;
67063;SDS011;58476;48.072;11.970;2022-07-23T11:26:58;21.33;;;12.60;;
67063;SDS011;58476;48.072;11.970;2022-07-23T11:31:57;19.20;;;12.30;;
67063;SDS011;58476;48.072;11.970;2022-07-23T11:34:32;20.42;;;12.25;;
67063;SDS011;58476;48.072;11.970;2022-07-23T11:37:04;17.98;;;10.85;;
67063;SDS011;58476;48.072;11.970;2022-07-23T11:39:32;19.15;;;10.77;;
67063;SDS011;58476;48.072;11.970;2022-07-23T11:41:58;17.90;;;10.00;;
67063;SDS011;58476;48.072;11.970;2022-07-23T11:44:29;16.08;;;9.93;;
67063;SDS011;58476;48.072;11.970;2022-07-23T11:47:00;16.00;;;10.50;;
67063;SDS011;58476;48.072;11.970;2022-07-23T11:49:27;16.50;;;9.23;;
67063;SDS011;58476;48.072;11.970;2022-07-23T11:54:32;16.88;;;9.48;;
67063;SDS011;58476;48.072;11.970;2022-07-23T11:56:59;18.63;;;9.35;;
67063;SDS011;58476;48.072;11.970;2022-07-23T11:59:26;17.02;;;8.82;;
67063;SDS011;58476;48.072;11.970;2022-07-23T12:02:00;18.63;;;9.07;;
67063;SDS011;58476;48.072;11.970;2022-07-23T12:04:41;15.77;;;9.50;;
67063;SDS011;58476;48.072;11.970;2022-07-23T12:12:47;14.68;;;8.85;;
67063;SDS011;58476;48.072;11.970;2022-07-23T12:15:31;15.32;;;8.38;;
67063;SDS011;58476;48.072;11.970;2022-07-23T12:18:01;15.93;;;8.38;;
67063;SDS011;58476;48.072;11.970;2022-07-23T12:20:27;12.82;;;7.63;;
67063;SDS011;58476;48.072;11.970;2022-07-23T12:22:55;12.93;;;8.13;;
67063;SDS011;58476;48.072;11.970;2022-07-23T12:25:23;12.18;;;7.57;;
67063;SDS011;58476;48.072;11.970;2022-07-23T12:30:41;14.27;;;7.53;;
67063;SDS011;58476;48.072;11.970;2022-07-23T12:33:26;11.85;;;7.85;;
67063;SDS011;58476;48.072;11.970;2022-07-23T12:35:57;11.43;;;7.45;;
67063;SDS011;58476;48.072;11.970;2022-07-23T12:38:35;11.23;;;7.22;;
67063;SDS011;58476;48.072;11.970;2022-07-23T12:41:03;11.57;;;7.80;;
67063;SDS011;58476;48.072;11.970;2022-07-23T12:48:49;13.27;;;7.20;;
67063;SDS011;58476;48.072;11.970;2022-07-23T12:51:17;9.32;;;6.35;;
67063;SDS011;58476;48.072;11.970;2022-07-23T12:53:45;16.30;;;7.03;;
67063;SDS011;58476;48.072;11.970;2022-07-23T12:56:13;10.77;;;6.63;;
67063;SDS011;58476;48.072;11.970;2022-07-23T12:58:56;14.48;;;6.75;;
67063;SDS011;58476;48.072;11.970;2022-07-23T13:01:29;10.10;;;6.80;;
67063;SDS011;58476;48.072;11.970;2022-07-23T13:06:33;9.25;;;6.10;;
67063;SDS011;58476;48.072;11.970;2022-07-23T13:09:04;11.30;;;6.30;;
67063;SDS011;58476;48.072;11.970;2022-07-23T13:11:32;13.40;;;6.15;;
67063;SDS011;58476;48.072;11.970;2022-07-23T13:13:57;10.70;;;5.95;;
67063;SDS011;58476;48.072;11.970;2022-07-23T13:16:23;11.65;;;6.82;;
67063;SDS011;58476;48.072;11.970;2022-07-23T14:03:32;10.65;;;5.72;;
67063;SDS011;58476;48.072;11.970;2022-07-23T14:08:25;8.88;;;5.53;;
67063;SDS011;58476;48.072;11.970;2022-07-23T14:10:50;6.85;;;5.13;;
67063;SDS011;58476;48.072;11.970;2022-07-23T14:13:16;8.63;;;5.03;;
67063;SDS011;58476;48.072;11.970;2022-07-23T14:15:41;7.30;;;5.10;;
67063;SDS011;58476;48.072;11.970;2022-07-23T14:18:07;10.35;;;4.97;;
67063;SDS011;58476;48.072;11.970;2022-07-23T14:20:32;7.05;;;5.20;;
67063;SDS011;58476;48.072;11.970;2022-07-23T14:22:58;9.13;;;5.43;;
67063;SDS011;58476;48.072;11.970;2022-07-23T14:25:23;7.65;;;4.90;;
67063;SDS011;58476;48.072;11.970;2022-07-23T14:27:49;7.88;;;4.93;;
67063;SDS011;58476;48.072;11.970;2022-07-23T14:30:14;9.52;;;4.88;;
67063;SDS011;58476;48.072;11.970;2022-07-23T14:32:39;10.00;;;5.68;;
67063;SDS011;58476;48.072;11.970;2022-07-23T14:35:06;7.32;;;5.03;;
67063;SDS011;58476;48.072;11.970;2022-07-23T14:37:32;6.22;;;5.07;;
67063;SDS011;58476;48.072;11.970;2022-07-23T14:39:58;8.38;;;4.97;;
67063;SDS011;58476;48.072;11.970;2022-07-23T14:42:23;8.90;;;4.90;;
67063;SDS011;58476;48.072;11.970;2022-07-23T14:44:48;8.30;;;4.82;;
67063;SDS011;58476;48.072;11.970;2022-07-23T14:47:14;7.35;;;4.63;;
67063;SDS011;58476;48.072;11.970;2022-07-23T14:49:39;6.70;;;4.68;;
67063;SDS011;58476;48.072;11.970;2022-07-23T14:52:05;7.72;;;4.55;;
67063;SDS011;58476;48.072;11.970;2022-07-23T14:54:31;7.88;;;4.25;;
67063;SDS011;58476;48.072;11.970;2022-07-23T14:56:57;5.40;;;4.05;;
67063;SDS011;58476;48.072;11.970;2022-07-23T14:59:23;6.70;;;4.18;;
67063;SDS011;58476;48.072;11.970;2022-07-23T15:01:49;9.60;;;4.50;;
67063;SDS011;58476;48.072;11.970;2022-07-23T15:04:15;7.07;;;4.20;;
67063;SDS011;58476;48.072;11.970;2022-07-23T15:06:40;10.93;;;4.57;;
67063;SDS011;58476;48.072;11.970;2022-07-23T15:09:06;7.10;;;4.25;;
67063;SDS011;58476;48.072;11.970;2022-07-23T15:11:31;7.50;;;4.43;;
67063;SDS011;58476;48.072;11.970;2022-07-23T15:13:57;6.50;;;3.83;;
67063;SDS011;58476;48.072;11.970;2022-07-23T15:16:22;9.43;;;3.95;;
67063;SDS011;58476;48.072;11.970;2022-07-23T15:18:48;7.03;;;4.10;;
67063;SDS011;58476;48.072;11.970;2022-07-23T15:21:13;6.38;;;3.70;;
67063;SDS011;58476;48.072;11.970;2022-07-23T15:23:38;6.68;;;3.90;;
67063;SDS011;58476;48.072;11.970;2022-07-23T15:26:04;6.40;;;4.05;;
67063;SDS011;58476;48.072;11.970;2022-07-23T15:28:29;9.30;;;3.83;;
67063;SDS011;58476;48.072;11.970;2022-07-23T15:30:55;7.43;;;3.80;;
67063;SDS011;58476;48.072;11.970;2022-07-23T15:33:20;10.98;;;4.10;;
67063;SDS011;58476;48.072;11.970;2022-07-23T15:35:46;5.22;;;3.92;;
67063;SDS011;58476;48.072;11.970;2022-07-23T15:38:11;5.93;;;3.90;;
67063;SDS011;58476;48.072;11.970;2022-07-23T15:40:36;11.75;;;3.90;;
67063;SDS011;58476;48.072;11.970;2022-07-23T15:43:02;8.60;;;3.60;;
67063;SDS011;58476;48.072;11.970;2022-07-23T15:45:27;7.75;;;4.03;;
67063;SDS011;58476;48.072;11.970;2022-07-23T15:47:53;7.43;;;3.60;;
67063;SDS011;58476;48.072;11.970;2022-07-23T15:50:19;7.38;;;3.00;;
67063;SDS011;58476;48.072;11.970;2022-07-23T15:52:45;8.85;;;3.60;;
67063;SDS011;58476;48.072;11.970;2022-07-23T15:55:10;6.53;;;3.45;;
67063;SDS011;58476;48.072;11.970;2022-07-23T15:57:35;5.00;;;3.20;;
67063;SDS011;58476;48.072;11.970;2022-07-23T16:00:01;4.13;;;3.10;;
67063;SDS011;58476;48.072;11.970;2022-07-23T16:02:29;4.40;;;3.20;;
67063;SDS011;58476;48.072;11.970;2022-07-23T16:04:54;13.90;;;3.53;;
67063;SDS011;58476;48.072;11.970;2022-07-23T16:07:20;6.20;;;3.42;;
67063;SDS011;58476;48.072;11.970;2022-07-23T16:09:45;5.63;;;3.25;;
67063;SDS011;58476;48.072;11.970;2022-07-23T16:12:11;4.68;;;3.10;;
67063;SDS011;58476;48.072;11.970;2022-07-23T16:14:37;8.93;;;3.45;;
67063;SDS011;58476;48.072;11.970;2022-07-23T16:17:02;3.97;;;3.15;;
67063;SDS011;58476;48.072;11.970;2022-07-23T16:19:28;4.18;;;3.05;;
67063;SDS011;58476;48.072;11.970;2022-07-23T16:21:53;4.88;;;3.15;;
67063;SDS011;58476;48.072;11.970;2022-07-23T16:24:18;6.20;;;3.83;;
67063;SDS011;58476;48.072;11.970;2022-07-23T16:26:44;8.48;;;3.28;;
67063;SDS011;58476;48.072;11.970;2022-07-23T16:29:10;4.35;;;3.08;;